Time;durP1;ratioP1;P1;durP2;ratioP2;P2;SDS_P1;SDS_P2;PMS_P1;PMS_P2;Temp;Humidity;BMP_temperature;BMP_pressure;BME280_temperature;BME280_humidity;BME280_pressure;Samples;Min_cycle;Max_cycle;Signal;HPM_P1;HPM_P2
2022/02/14 00:02:22;;;;;;;2.50;1.83;;;6.80;85.40;;;;;;5093836;28;20198;-74
2022/02/14 00:04:48;;;;;;;2.30;2.20;;;6.80;85.60;;;;;;5093209;28;20210;-75
2022/02/14 00:07:13;;;;;;;3.47;2.43;;;6.70;85.60;;;;;;5093555;28;20172;-75
2022/02/14 00:09:39;;;;;;;2.50;2.37;;;6.70;85.50;;;;;;5093718;28;20177;-75
2022/02/14 00:12:05;;;;;;;5.07;2.50;;;6.60;86.00;;;;;;5092563;28;20181;-75
2022/02/14 00:14:32;;;;;;;2.28;2.15;;;6.50;86.20;;;;;;5093179;28;20188;-75
2022/02/14 00:16:57;;;;;;;2.05;1.92;;;6.50;86.80;;;;;;5093616;28;20165;-75
2022/02/14 00:19:23;;;;;;;1.80;1.70;;;6.30;87.30;;;;;;5093929;28;20176;-76
2022/02/14 00:21:50;;;;;;;2.83;2.37;;;6.30;86.90;;;;;;5093493;28;20171;-74
2022/02/14 00:24:17;;;;;;;4.10;3.70;;;6.20;87.00;;;;;;5093323;28;20218;-75
2022/02/14 00:26:43;;;;;;;2.55;2.00;;;6.20;87.70;;;;;;5093557;28;20205;-75
2022/02/14 00:29:09;;;;;;;2.00;1.90;;;6.10;87.80;;;;;;5093538;28;20512;-76
2022/02/14 00:31:35;;;;;;;3.27;2.93;;;6.00;87.50;;;;;;5093780;28;20404;-76
2022/02/14 00:34:01;;;;;;;2.30;2.20;;;6.10;88.20;;;;;;5093298;28;20235;-75
2022/02/14 00:36:27;;;;;;;2.10;1.90;;;6.00;88.50;;;;;;5093141;28;20220;-76
2022/02/14 00:38:52;;;;;;;1.48;1.42;;;6.00;87.80;;;;;;5092157;28;20576;-74
2022/02/14 00:41:18;;;;;;;1.33;1.33;;;6.00;87.20;;;;;;5092252;28;20237;-75
2022/02/14 00:43:43;;;;;;;2.50;2.30;;;6.20;86.80;;;;;;5092916;28;20167;-76
2022/02/14 00:46:09;;;;;;;2.73;1.90;;;6.30;87.00;;;;;;5093255;28;20240;-74
2022/02/14 00:48:35;;;;;;;2.13;1.93;;;6.40;86.40;;;;;;5093127;28;20188;-75
2022/02/14 00:51:01;;;;;;;1.83;1.67;;;6.50;86.00;;;;;;5093334;28;20171;-75
2022/02/14 00:53:26;;;;;;;1.57;1.47;;;6.60;85.20;;;;;;5093617;28;20400;-75
2022/02/14 00:55:52;;;;;;;2.63;1.53;;;6.70;84.80;;;;;;5097352;28;20236;-76
2022/02/14 00:58:19;;;;;;;1.90;1.80;;;6.80;84.40;;;;;;5096205;28;20258;-75
2022/02/14 01:00:45;;;;;;;1.95;1.42;;;6.80;83.30;;;;;;5096812;28;20179;-74
2022/02/14 01:03:10;;;;;;;1.53;1.40;;;6.80;83.40;;;;;;5096741;28;20243;-75
2022/02/14 01:05:37;;;;;;;2.50;2.30;;;6.90;83.40;;;;;;5095724;28;20256;-75
2022/02/14 01:08:04;;;;;;;1.63;1.52;;;6.90;83.40;;;;;;5097161;28;20177;-75
2022/02/14 01:10:30;;;;;;;4.00;2.22;;;6.90;82.50;;;;;;5097285;28;20217;-74
2022/02/14 01:12:55;;;;;;;2.35;1.65;;;7.00;82.70;;;;;;5096345;28;20179;-75
2022/02/14 01:15:21;;;;;;;1.80;1.50;;;7.00;82.00;;;;;;5096747;28;20202;-75
2022/02/14 01:17:47;;;;;;;1.30;1.20;;;7.10;82.40;;;;;;5097475;28;20635;-74
2022/02/14 01:20:13;;;;;;;2.03;1.93;;;7.10;82.00;;;;;;5096967;28;20176;-75
2022/02/14 01:22:40;;;;;;;2.25;2.05;;;7.10;81.70;;;;;;5096711;28;20181;-77
2022/02/14 01:25:07;;;;;;;2.70;1.70;;;7.10;81.70;;;;;;5096510;28;20213;-75
2022/02/14 01:27:33;;;;;;;1.60;1.50;;;7.10;81.00;;;;;;5096708;28;20165;-75
2022/02/14 01:29:59;;;;;;;1.97;1.40;;;7.10;81.20;;;;;;5096396;28;20250;-75
2022/02/14 01:32:25;;;;;;;1.83;1.73;;;7.10;81.20;;;;;;5096735;28;20432;-74
2022/02/14 01:34:51;;;;;;;1.40;1.40;;;7.10;81.20;;;;;;5096223;28;20622;-75
2022/02/14 01:37:17;;;;;;;2.85;2.33;;;7.10;81.10;;;;;;5096611;28;20794;-75
2022/02/14 01:39:44;;;;;;;1.60;1.50;;;7.10;81.20;;;;;;5096651;28;20172;-75
2022/02/14 01:42:10;;;;;;;1.90;1.80;;;7.10;81.90;;;;;;5095065;28;20168;-75
2022/02/14 01:44:39;;;;;;;2.33;2.13;;;7.10;81.60;;;;;;5095693;28;20594;-75
2022/02/14 01:47:19;;;;;;;2.67;2.00;;;7.10;81.40;;;;;;5096412;28;20420;-75
2022/02/14 01:49:46;;;;;;;1.48;1.38;;;7.00;81.00;;;;;;5096631;28;20174;-75
2022/02/14 01:52:13;;;;;;;4.28;2.10;;;7.00;81.00;;;;;;5095105;28;20197;-75
2022/02/14 01:54:42;;;;;;;1.30;1.20;;;7.00;80.80;;;;;;5095685;28;20692;-75
2022/02/14 01:57:10;;;;;;;1.70;1.40;;;7.00;80.80;;;;;;5096468;28;20533;-76
2022/02/14 01:59:36;;;;;;;2.45;1.95;;;7.00;81.40;;;;;;5095808;28;20645;-75
2022/02/14 02:02:03;;;;;;;3.38;2.80;;;7.00;80.90;;;;;;5094919;28;20586;-75
2022/02/14 02:04:29;;;;;;;2.05;1.95;;;7.00;80.30;;;;;;5095509;28;20303;-75
2022/02/14 02:06:55;;;;;;;2.60;1.55;;;7.00;80.60;;;;;;5095165;28;20199;-75
2022/02/14 02:09:22;;;;;;;1.60;1.50;;;7.00;80.30;;;;;;5095986;28;20167;-75
2022/02/14 02:14:32;;;;;;;2.40;2.20;;;7.00;80.00;;;;;;5094914;28;20323;-75
2022/02/14 02:16:58;;;;;;;2.33;1.47;;;7.10;80.60;;;;;;5095936;28;20255;-76
2022/02/14 02:19:23;;;;;;;1.60;1.53;;;7.00;80.40;;;;;;5096103;28;20983;-75
2022/02/14 02:21:50;;;;;;;2.30;1.63;;;7.00;79.30;;;;;;5095938;28;20190;-75
2022/02/14 02:24:22;;;;;;;1.42;1.30;;;7.10;78.90;;;;;;5095238;28;20210;-75
2022/02/14 02:26:58;;;;;;;1.20;1.00;;;7.10;78.30;;;;;;5095688;28;20210;-76
2022/02/14 02:29:24;;;;;;;1.35;1.25;;;7.10;78.00;;;;;;5075256;28;20232;-76
2022/02/14 02:31:50;;;;;;;1.70;1.38;;;7.20;77.90;;;;;;5075650;28;20190;-76
2022/02/14 02:34:16;;;;;;;2.00;1.53;;;7.20;77.60;;;;;;5074734;28;20187;-76
2022/02/14 02:36:53;;;;;;;3.00;1.50;;;7.20;76.50;;;;;;5075458;28;20269;-74
2022/02/14 02:39:19;;;;;;;2.55;1.58;;;7.20;76.80;;;;;;5073854;28;20179;-76
2022/02/14 02:41:45;;;;;;;1.63;1.52;;;7.30;77.00;;;;;;5075692;28;20226;-76
2022/02/14 02:44:11;;;;;;;2.17;2.08;;;7.30;76.70;;;;;;5094728;28;20203;-75
2022/02/14 02:46:38;;;;;;;2.55;1.75;;;7.30;76.80;;;;;;5095040;28;20286;-76
2022/02/14 02:49:13;;;;;;;1.48;1.38;;;7.30;76.00;;;;;;5095131;28;20171;-77
2022/02/14 02:51:41;;;;;;;2.33;1.85;;;7.30;76.30;;;;;;5095077;28;20167;-75
2022/02/14 02:54:07;;;;;;;1.70;1.60;;;7.40;74.80;;;;;;5093323;28;20192;-75
2022/02/14 02:56:38;;;;;;;1.45;1.35;;;7.40;74.70;;;;;;5093646;28;20172;-76
2022/02/14 02:59:04;;;;;;;1.50;1.40;;;7.50;74.50;;;;;;5095106;28;20172;-77
2022/02/14 03:01:31;;;;;;;3.08;1.45;;;7.50;73.90;;;;;;5094770;28;20176;-76
2022/02/14 03:03:57;;;;;;;8.98;1.58;;;7.50;74.00;;;;;;5092977;28;20764;-74
2022/02/14 03:06:23;;;;;;;2.40;1.60;;;7.60;73.90;;;;;;5094812;28;20302;-76
2022/02/14 03:08:49;;;;;;;1.75;0.90;;;7.60;73.70;;;;;;5094966;28;20193;-76
2022/02/14 03:11:16;;;;;;;2.35;1.15;;;7.60;73.70;;;;;;5094630;28;20693;-73
2022/02/14 03:13:43;;;;;;;1.65;1.55;;;7.60;74.00;;;;;;5094129;28;20171;-74
2022/02/14 03:16:09;;;;;;;1.85;1.00;;;7.50;74.10;;;;;;5094750;28;20163;-76
2022/02/14 03:18:35;;;;;;;1.75;1.25;;;7.50;74.00;;;;;;5094775;28;20178;-75
2022/02/14 03:21:01;;;;;;;1.83;1.17;;;7.50;73.50;;;;;;5093151;28;20175;-76
2022/02/14 03:23:27;;;;;;;1.13;1.03;;;7.40;73.80;;;;;;5094462;28;20178;-75
2022/02/14 03:25:53;;;;;;;0.98;0.93;;;7.50;73.60;;;;;;5094964;28;20442;-76
2022/02/14 03:28:19;;;;;;;1.40;1.30;;;7.40;73.50;;;;;;5074232;28;20229;-75
2022/02/14 03:30:45;;;;;;;2.30;1.77;;;7.50;73.30;;;;;;5074028;28;20634;-74
2022/02/14 03:33:11;;;;;;;1.63;1.10;;;7.50;73.30;;;;;;5073642;28;20164;-75
2022/02/14 03:35:40;;;;;;;1.47;1.37;;;7.40;73.30;;;;;;5074014;28;20430;-75
2022/02/14 03:38:06;;;;;;;0.90;0.90;;;7.40;73.40;;;;;;5074129;28;20178;-75
2022/02/14 03:40:36;;;;;;;2.55;1.05;;;7.40;73.60;;;;;;5074070;28;20192;-74
2022/02/14 03:43:02;;;;;;;2.95;1.83;;;7.40;73.70;;;;;;5093448;28;20556;-75
2022/02/14 03:45:29;;;;;;;1.83;1.25;;;7.30;74.00;;;;;;5093948;28;20286;-75
2022/02/14 03:47:55;;;;;;;3.72;2.67;;;7.30;74.30;;;;;;5094139;28;20209;-76
2022/02/14 03:50:22;;;;;;;2.67;2.00;;;7.20;74.40;;;;;;5094370;28;20187;-76
2022/02/14 03:52:48;;;;;;;1.50;1.40;;;7.20;74.20;;;;;;5093562;28;20306;-73
2022/02/14 03:55:13;;;;;;;1.37;1.27;;;7.20;74.20;;;;;;5093970;28;20273;-76
2022/02/14 03:57:39;;;;;;;1.87;1.40;;;7.10;73.30;;;;;;5093671;28;20277;-75
2022/02/14 04:00:08;;;;;;;0.93;0.93;;;7.10;73.30;;;;;;5092488;28;20228;-75
2022/02/14 04:02:35;;;;;;;1.35;1.35;;;7.10;73.50;;;;;;5094253;28;20183;-75
2022/02/14 04:05:01;;;;;;;2.10;1.38;;;7.10;73.20;;;;;;5092130;28;20640;-75
2022/02/14 04:07:27;;;;;;;1.20;0.90;;;7.10;72.50;;;;;;5093873;28;20174;-76
2022/02/14 04:09:53;;;;;;;1.63;1.23;;;7.10;72.70;;;;;;5094005;28;20544;-75
2022/02/14 04:12:19;;;;;;;2.40;1.63;;;7.10;72.80;;;;;;5093375;28;20172;-76
2022/02/14 04:14:50;;;;;;;3.63;1.73;;;7.10;72.70;;;;;;5092040;28;20188;-75
2022/02/14 04:17:16;;;;;;;1.10;1.00;;;7.00;72.80;;;;;;5093691;28;20164;-75
2022/02/14 04:19:42;;;;;;;1.50;1.13;;;6.90;72.70;;;;;;5093804;28;20170;-75
2022/02/14 04:22:07;;;;;;;1.70;1.70;;;6.90;73.00;;;;;;5092344;28;20227;-75
2022/02/14 04:24:33;;;;;;;4.00;1.53;;;6.90;72.60;;;;;;5093105;28;20240;-76
2022/02/14 04:26:59;;;;;;;1.80;1.70;;;6.80;72.60;;;;;;5094797;28;20719;-76
2022/02/14 04:29:25;;;;;;;0.60;0.60;;;6.80;72.40;;;;;;5095158;28;20171;-75
2022/02/14 04:31:51;;;;;;;2.97;1.73;;;6.80;71.80;;;;;;5093812;28;20408;-75
2022/02/14 04:34:19;;;;;;;6.13;1.70;;;6.80;71.60;;;;;;5093703;28;20192;-75
2022/02/14 04:36:48;;;;;;;3.28;1.27;;;6.80;71.60;;;;;;5094105;28;20250;-75
2022/02/14 04:39:15;;;;;;;1.42;1.33;;;6.80;71.20;;;;;;5094554;28;20592;-75
2022/02/14 04:41:40;;;;;;;1.30;1.20;;;6.80;71.20;;;;;;5094181;28;20217;-75
2022/02/14 04:44:06;;;;;;;1.33;1.23;;;6.80;71.20;;;;;;5093790;28;20570;-75
2022/02/14 04:46:32;;;;;;;1.20;1.10;;;6.80;71.10;;;;;;5094133;28;20804;-75
2022/02/14 04:48:57;;;;;;;1.53;1.47;;;6.80;70.80;;;;;;5094619;28;20200;-75
2022/02/14 04:51:25;;;;;;;2.73;1.00;;;6.90;70.70;;;;;;5094178;28;20293;-75
2022/02/14 04:53:52;;;;;;;1.23;1.13;;;6.90;71.10;;;;;;5093431;28;20160;-75
2022/02/14 04:56:18;;;;;;;1.48;1.05;;;6.80;71.30;;;;;;5094364;28;20164;-75
2022/02/14 04:58:44;;;;;;;1.60;1.02;;;6.70;71.90;;;;;;5093123;28;20169;-75
2022/02/14 05:01:10;;;;;;;1.55;1.40;;;6.70;72.60;;;;;;5093259;28;20171;-75
2022/02/14 05:03:36;;;;;;;1.27;1.17;;;6.60;73.10;;;;;;5092795;28;20191;-74
2022/02/14 05:06:02;;;;;;;1.60;1.60;;;6.50;73.30;;;;;;5093134;28;20210;-76
2022/02/14 05:08:28;;;;;;;1.80;1.13;;;6.50;74.10;;;;;;5093168;28;20456;-74
2022/02/14 05:10:55;;;;;;;2.90;2.00;;;6.40;75.00;;;;;;5093208;28;20193;-74
2022/02/14 05:13:20;;;;;;;1.95;1.10;;;6.30;75.50;;;;;;5091360;28;20204;-76
2022/02/14 05:15:46;;;;;;;1.53;1.43;;;6.20;76.30;;;;;;5091711;28;20234;-76
2022/02/14 05:18:12;;;;;;;0.90;0.90;;;6.20;77.00;;;;;;5091685;28;20722;-76
2022/02/14 05:20:37;;;;;;;4.93;2.10;;;6.10;77.40;;;;;;5072910;28;20174;-75
2022/02/14 05:23:03;;;;;;;2.00;1.33;;;6.00;77.50;;;;;;5071233;28;20195;-75
2022/02/14 05:25:29;;;;;;;5.03;1.20;;;6.00;78.30;;;;;;5072884;28;20224;-75
2022/02/14 05:27:54;;;;;;;1.73;1.63;;;5.90;78.90;;;;;;5072637;28;20165;-75
2022/02/14 05:30:20;;;;;;;1.10;1.10;;;5.90;79.50;;;;;;5072754;28;20180;-75
2022/02/14 05:32:47;;;;;;;1.75;1.50;;;5.90;80.30;;;;;;5072462;28;20236;-75
2022/02/14 05:35:13;;;;;;;1.58;1.48;;;5.80;79.40;;;;;;5091236;28;20216;-74
2022/02/14 05:37:39;;;;;;;1.70;1.17;;;5.90;79.90;;;;;;5092598;28;20217;-75
2022/02/14 05:40:06;;;;;;;1.50;1.43;;;5.90;80.00;;;;;;5092614;28;20211;-75
2022/02/14 05:42:32;;;;;;;2.38;2.13;;;5.80;80.20;;;;;;5094722;28;20425;-69
2022/02/14 05:44:57;;;;;;;7.97;2.13;;;5.80;80.70;;;;;;5096019;28;20546;-73
2022/02/14 05:47:23;;;;;;;1.17;1.00;;;5.70;81.60;;;;;;5094863;28;20183;-75
2022/02/14 05:49:49;;;;;;;2.87;1.63;;;5.60;81.90;;;;;;5096193;28;20195;-75
2022/02/14 05:52:14;;;;;;;1.90;1.07;;;5.50;81.80;;;;;;5096143;28;20173;-75
2022/02/14 05:54:40;;;;;;;1.63;1.53;;;5.50;82.40;;;;;;5093633;28;20438;-75
2022/02/14 05:57:06;;;;;;;1.40;1.30;;;5.40;82.70;;;;;;5094396;28;20173;-75
2022/02/14 05:59:32;;;;;;;2.50;1.30;;;5.40;82.50;;;;;;5094506;28;20414;-75
2022/02/14 06:01:57;;;;;;;1.20;1.10;;;5.30;82.90;;;;;;5095508;28;20254;-75
2022/02/14 06:04:23;;;;;;;1.97;1.63;;;5.30;83.30;;;;;;5095202;28;20227;-76
2022/02/14 06:06:49;;;;;;;1.50;1.10;;;5.20;83.50;;;;;;5095380;28;20224;-75
2022/02/14 06:09:15;;;;;;;1.30;1.20;;;5.20;83.30;;;;;;5094639;28;20254;-75
2022/02/14 06:11:41;;;;;;;1.10;1.07;;;5.20;83.40;;;;;;5095527;28;20200;-74
2022/02/14 06:14:07;;;;;;;0.98;0.98;;;5.20;83.40;;;;;;5095093;28;20180;-74
2022/02/14 06:16:33;;;;;;;1.85;1.42;;;5.20;83.80;;;;;;5095551;28;20183;-73
2022/02/14 06:18:58;;;;;;;1.60;1.50;;;5.20;84.10;;;;;;5095321;28;20573;-75
2022/02/14 06:21:27;;;;;;;3.27;1.63;;;5.20;84.40;;;;;;5095353;28;20711;-75
2022/02/14 06:23:52;;;;;;;1.10;1.00;;;5.20;84.90;;;;;;5095076;28;20406;-76
2022/02/14 06:26:18;;;;;;;5.20;2.20;;;5.30;85.20;;;;;;5095288;28;20199;-75
2022/02/14 06:28:44;;;;;;;4.00;1.97;;;5.30;85.30;;;;;;5095090;28;20750;-75
2022/02/14 06:31:10;;;;;;;1.33;1.33;;;5.30;86.00;;;;;;5095391;28;20192;-76
2022/02/14 06:33:37;;;;;;;1.00;1.00;;;5.30;85.40;;;;;;5093330;28;20172;-75
2022/02/14 06:36:04;;;;;;;1.38;1.33;;;5.30;85.70;;;;;;5094042;28;20430;-77
2022/02/14 06:38:30;;;;;;;1.58;1.48;;;5.30;85.60;;;;;;5095094;28;20168;-75
2022/02/14 06:40:56;;;;;;;2.80;1.50;;;5.30;85.70;;;;;;5095233;28;20168;-76
2022/02/14 06:43:22;;;;;;;1.60;1.50;;;5.30;85.40;;;;;;5094680;28;20403;-74
2022/02/14 06:45:48;;;;;;;2.80;1.90;;;5.30;85.40;;;;;;5094691;28;20199;-74
2022/02/14 06:48:13;;;;;;;1.20;1.20;;;5.40;85.60;;;;;;5094728;28;20398;-76
2022/02/14 06:50:39;;;;;;;1.50;1.30;;;5.40;85.80;;;;;;5094954;28;20410;-75
2022/02/14 06:53:05;;;;;;;3.37;2.23;;;5.40;85.70;;;;;;5094040;28;20655;-74
2022/02/14 06:55:30;;;;;;;2.73;1.37;;;5.40;85.60;;;;;;5094821;28;20188;-75
2022/02/14 06:57:56;;;;;;;1.23;1.20;;;5.40;85.50;;;;;;5094694;28;20178;-75
2022/02/14 07:00:23;;;;;;;2.03;1.90;;;5.50;85.30;;;;;;5094573;28;20174;-74
2022/02/14 07:02:48;;;;;;;1.40;1.30;;;5.50;84.70;;;;;;5093354;28;20256;-73
2022/02/14 07:05:19;;;;;;;2.50;1.83;;;5.60;84.10;;;;;;5094474;28;20287;-73
2022/02/14 07:07:45;;;;;;;2.30;1.90;;;5.60;84.20;;;;;;5093292;28;20226;-74
2022/02/14 07:10:12;;;;;;;1.83;1.73;;;5.60;84.10;;;;;;5094473;28;20165;-74
2022/02/14 07:12:38;;;;;;;1.33;1.15;;;5.50;83.90;;;;;;5094100;28;20678;-74
2022/02/14 07:15:04;;;;;;;2.20;2.10;;;5.50;84.20;;;;;;5093454;28;20222;-75
2022/02/14 07:17:32;;;;;;;1.38;1.27;;;5.50;84.10;;;;;;5093368;28;20181;-68
2022/02/14 07:19:58;;;;;;;2.78;2.00;;;5.60;83.00;;;;;;5094413;28;20172;-68
2022/02/14 07:22:23;;;;;;;2.50;1.90;;;5.60;82.80;;;;;;5093703;28;20528;-67
2022/02/14 07:24:49;;;;;;;2.00;1.53;;;5.70;82.80;;;;;;5093208;28;20195;-66
2022/02/14 07:27:15;;;;;;;1.48;1.38;;;5.70;83.10;;;;;;5092117;28;20198;-67
2022/02/14 07:29:41;;;;;;;1.50;1.40;;;5.70;83.10;;;;;;5093840;28;20214;-67
2022/02/14 07:32:07;;;;;;;1.50;1.40;;;5.80;83.10;;;;;;5092583;28;20170;-69
2022/02/14 07:34:33;;;;;;;10.57;2.20;;;5.80;83.20;;;;;;5093322;28;20454;-67
2022/02/14 07:37:02;;;;;;;1.63;1.30;;;5.90;83.30;;;;;;5093751;28;20168;-68
2022/02/14 07:39:29;;;;;;;4.53;2.03;;;6.00;83.70;;;;;;5092700;28;20170;-69
2022/02/14 07:41:56;;;;;;;2.63;1.80;;;6.00;83.40;;;;;;5093461;28;20265;-68
2022/02/14 07:44:25;;;;;;;2.05;1.85;;;6.20;83.50;;;;;;5092140;28;20282;-71
2022/02/14 07:46:52;;;;;;;3.67;2.75;;;6.60;82.90;;;;;;5093583;28;20290;-67
2022/02/14 07:49:19;;;;;;;2.25;2.05;;;7.00;81.80;;;;;;5093966;28;20171;-67
2022/02/14 07:51:45;;;;;;;2.25;2.08;;;7.40;80.50;;;;;;5094029;28;20180;-64
2022/02/14 07:54:10;;;;;;;2.77;2.10;;;7.90;80.00;;;;;;5092931;28;20626;-68
2022/02/14 07:56:36;;;;;;;1.97;1.87;;;8.40;80.80;;;;;;5093447;28;20180;-69
2022/02/14 07:59:05;;;;;;;1.50;1.43;;;9.20;80.30;;;;;;5093700;28;20176;-67
2022/02/14 08:01:31;;;;;;;5.80;3.30;;;10.00;74.80;;;;;;5091758;28;20896;-66
2022/02/14 08:03:57;;;;;;;2.27;2.10;;;10.90;72.40;;;;;;5084955;28;20476;-67
2022/02/14 08:06:22;;;;;;;3.23;2.80;;;11.80;69.80;;;;;;5073198;28;20210;-66
2022/02/14 08:08:49;;;;;;;3.17;2.87;;;12.70;67.80;;;;;;5074142;28;20184;-67
2022/02/14 08:11:16;;;;;;;2.40;1.97;;;13.60;65.10;;;;;;5083136;28;20527;-66
2022/02/14 08:13:42;;;;;;;5.80;2.93;;;14.30;63.70;;;;;;5092946;28;20390;-68
2022/02/14 08:16:07;;;;;;;2.17;1.97;;;15.00;61.60;;;;;;5093671;28;20396;-69
2022/02/14 08:18:33;;;;;;;1.93;1.83;;;15.70;61.40;;;;;;5093101;28;20172;-71
2022/02/14 08:20:59;;;;;;;2.47;2.23;;;16.50;57.90;;;;;;5093163;28;20266;-70
2022/02/14 08:23:24;;;;;;;2.80;2.60;;;16.90;58.20;;;;;;5093257;28;20255;-69
2022/02/14 08:25:50;;;;;;;2.07;1.97;;;17.40;59.10;;;;;;5091851;28;20237;-72
2022/02/14 08:28:16;;;;;;;2.90;2.40;;;17.90;57.90;;;;;;5093330;28;20696;-70
2022/02/14 08:30:42;;;;;;;5.17;2.60;;;18.20;57.20;;;;;;5092015;28;20200;-70
2022/02/14 08:33:10;;;;;;;3.03;2.53;;;18.60;56.80;;;;;;5092901;28;20199;-73
2022/02/14 08:35:37;;;;;;;4.00;2.60;;;18.90;55.10;;;;;;5093238;28;20858;-74
2022/02/14 08:38:03;;;;;;;3.17;2.90;;;19.20;55.40;;;;;;5093408;28;20479;-72
2022/02/14 08:40:29;;;;;;;2.40;2.20;;;19.50;54.40;;;;;;5091900;28;20841;-67
2022/02/14 08:42:56;;;;;;;3.37;2.00;;;19.90;53.80;;;;;;5093000;28;20480;-69
2022/02/14 08:45:22;;;;;;;2.80;2.60;;;20.20;52.50;;;;;;5091308;28;20207;-69
2022/02/14 08:47:49;;;;;;;2.73;2.50;;;20.50;52.30;;;;;;5092411;28;20777;-70
2022/02/14 08:50:15;;;;;;;3.87;2.70;;;20.80;51.50;;;;;;5092216;28;20172;-71
2022/02/14 08:52:41;;;;;;;5.83;2.57;;;21.00;50.50;;;;;;5092219;28;20420;-70
2022/02/14 08:55:08;;;;;;;2.70;2.50;;;21.30;49.80;;;;;;5091660;28;20713;-71
2022/02/14 08:57:35;;;;;;;2.60;2.30;;;21.70;49.20;;;;;;5092919;28;20167;-72
2022/02/14 09:00:01;;;;;;;3.00;2.80;;;22.00;48.50;;;;;;5092735;28;20402;-71
2022/02/14 09:02:26;;;;;;;1.97;1.87;;;22.20;47.40;;;;;;5092029;28;20476;-70
2022/02/14 09:04:52;;;;;;;2.47;2.27;;;22.20;47.00;;;;;;5092353;28;20882;-70
2022/02/14 09:07:17;;;;;;;2.50;2.30;;;22.20;46.80;;;;;;5093140;28;20176;-68
2022/02/14 09:09:43;;;;;;;1.97;1.77;;;22.30;46.30;;;;;;5092801;28;20663;-69
2022/02/14 09:12:09;;;;;;;2.47;2.27;;;22.40;46.30;;;;;;5093026;28;20243;-69
2022/02/14 09:14:35;;;;;;;2.10;2.00;;;22.50;46.40;;;;;;5093403;28;20206;-69
2022/02/14 09:17:00;;;;;;;2.20;2.07;;;22.70;46.20;;;;;;5097316;28;20405;-72
2022/02/14 09:19:26;;;;;;;2.47;2.30;;;22.80;46.10;;;;;;5096952;28;20172;-72
2022/02/14 09:21:52;;;;;;;1.83;1.73;;;22.60;45.30;;;;;;5097059;28;20196;-66
2022/02/14 09:24:17;;;;;;;3.50;1.97;;;22.20;45.70;;;;;;5096341;28;20192;-67
2022/02/14 09:26:45;;;;;;;3.77;2.20;;;22.50;45.50;;;;;;5095706;28;20261;-70
2022/02/14 09:29:13;;;;;;;2.07;1.90;;;23.00;45.80;;;;;;5096648;28;20157;-72
2022/02/14 09:31:39;;;;;;;3.07;2.80;;;23.60;45.20;;;;;;5095321;28;20380;-69
2022/02/14 09:34:05;;;;;;;3.13;1.77;;;23.90;44.10;;;;;;5096225;28;20393;-67
2022/02/14 09:36:33;;;;;;;2.80;1.77;;;23.50;43.90;;;;;;5095108;28;20917;-70
2022/02/14 09:39:00;;;;;;;1.90;1.77;;;22.30;44.70;;;;;;5096141;28;20395;-69
2022/02/14 09:41:26;;;;;;;4.03;1.40;;;21.20;45.40;;;;;;5096617;28;20708;-67
2022/02/14 09:43:51;;;;;;;1.87;1.27;;;20.00;46.20;;;;;;5096288;28;20544;-68
2022/02/14 09:46:18;;;;;;;1.70;1.60;;;19.20;47.50;;;;;;5096298;28;20446;-69
2022/02/14 09:48:44;;;;;;;1.33;1.33;;;18.20;48.70;;;;;;5096458;28;20171;-67
2022/02/14 09:51:12;;;;;;;1.70;1.60;;;17.40;50.20;;;;;;5096429;28;20395;-67
2022/02/14 09:53:40;;;;;;;1.33;1.20;;;16.80;51.40;;;;;;5095554;28;20441;-71
2022/02/14 09:56:07;;;;;;;4.40;1.30;;;16.30;52.20;;;;;;5096242;28;20369;-66
2022/02/14 09:58:33;;;;;;;1.90;1.70;;;16.00;52.40;;;;;;5095628;28;20426;-68
2022/02/14 10:00:59;;;;;;;4.90;1.50;;;15.60;52.50;;;;;;5096148;28;20426;-67
2022/02/14 10:03:25;;;;;;;2.27;1.70;;;15.30;53.80;;;;;;5095421;28;20219;-68
2022/02/14 10:05:53;;;;;;;1.77;1.53;;;15.10;54.40;;;;;;5095813;28;20484;-65
2022/02/14 10:08:25;;;;;;;1.43;1.20;;;15.10;54.30;;;;;;5095641;28;20540;-69
2022/02/14 10:10:54;;;;;;;1.70;1.60;;;15.10;55.60;;;;;;5096178;28;20819;-68
2022/02/14 10:13:35;;;;;;;1.50;1.40;;;15.10;55.10;;;;;;5095047;28;20426;-69
2022/02/14 10:16:05;;;;;;;1.20;1.13;;;15.00;55.10;;;;;;5094143;28;20419;-67
2022/02/14 10:18:33;;;;;;;2.40;1.57;;;14.90;55.40;;;;;;5095218;28;20805;-69
2022/02/14 10:21:16;;;;;;;1.30;1.30;;;14.70;55.70;;;;;;5075445;28;20757;-68
2022/02/14 10:24:09;;;;;;;3.20;2.80;;;14.60;55.90;;;;;;5094173;28;20472;-65
2022/02/14 10:26:47;;;;;;;4.50;2.37;;;14.40;57.10;;;;;;5094238;28;20492;-70
2022/02/14 10:29:27;;;;;;;1.80;1.70;;;14.20;58.30;;;;;;5095424;28;20409;-67
2022/02/14 10:31:56;;;;;;;4.47;1.60;;;14.00;58.00;;;;;;5094639;28;20889;-68
2022/02/14 10:34:43;;;;;;;4.63;1.33;;;13.90;58.50;;;;;;5094028;28;20481;-69
2022/02/14 10:37:14;;;;;;;5.20;2.00;;;13.90;59.70;;;;;;5094756;28;20440;-67
2022/02/14 10:39:42;;;;;;;1.43;1.10;;;14.10;60.50;;;;;;5095114;28;20427;-70
2022/02/14 10:42:10;;;;;;;1.50;1.40;;;14.60;59.50;;;;;;5094330;28;20419;-66
2022/02/14 10:47:31;;;;;;;2.00;1.30;;;15.10;59.50;;;;;;5094620;28;20430;-70
2022/02/14 10:50:00;;;;;;;1.40;1.20;;;15.10;59.40;;;;;;5094282;28;20569;-68
2022/02/14 10:52:32;;;;;;;1.53;1.43;;;15.00;59.70;;;;;;5095178;28;20435;-69
2022/02/14 10:54:58;;;;;;;1.77;1.67;;;14.90;59.40;;;;;;5094542;28;20438;-69
2022/02/14 10:57:34;;;;;;;1.77;1.67;;;14.80;60.90;;;;;;5094767;28;20862;-69
2022/02/14 11:00:05;;;;;;;1.40;1.30;;;14.70;62.40;;;;;;5094635;28;20177;-70
2022/02/14 11:02:31;;;;;;;1.97;1.50;;;14.70;64.30;;;;;;5092878;28;20423;-66
2022/02/14 11:04:57;;;;;;;2.90;2.70;;;14.80;66.10;;;;;;5093016;28;20486;-66
2022/02/14 11:07:25;;;;;;;2.07;1.87;;;14.80;67.60;;;;;;5094602;28;20453;-65
2022/02/14 11:09:54;;;;;;;0.77;0.77;;;14.80;70.50;;;;;;5094306;28;20184;-67
2022/02/14 11:12:21;;;;;;;2.10;0.80;;;15.00;69.10;;;;;;5094226;28;20430;-67
2022/02/14 11:14:55;;;;;;;1.13;1.03;;;15.10;69.50;;;;;;5094082;28;20850;-68
2022/02/14 11:17:31;;;;;;;0.87;0.87;;;15.10;69.60;;;;;;5094148;28;20486;-71
2022/02/14 11:20:00;;;;;;;1.43;0.70;;;15.10;69.40;;;;;;5093633;28;20473;-68
2022/02/14 11:22:29;;;;;;;1.33;1.23;;;15.10;69.40;;;;;;5094029;28;20416;-67
2022/02/14 11:25:02;;;;;;;1.43;1.30;;;15.20;71.10;;;;;;5092227;28;20451;-68
2022/02/14 11:27:35;;;;;;;5.93;1.13;;;15.20;70.40;;;;;;5093361;28;20407;-66
2022/02/14 11:30:08;;;;;;;1.47;1.40;;;15.20;70.70;;;;;;5094132;28;20413;-68
2022/02/14 11:32:39;;;;;;;6.47;0.90;;;15.30;71.30;;;;;;5085372;28;20938;-68
2022/02/14 11:35:20;;;;;;;1.10;1.00;;;15.20;71.50;;;;;;5093930;28;20495;-67
2022/02/14 11:37:58;;;;;;;1.70;1.13;;;15.10;71.60;;;;;;5093918;28;20919;-68
2022/02/14 11:40:35;;;;;;;2.00;1.20;;;15.00;72.70;;;;;;5093723;28;20419;-67
2022/02/14 11:43:11;;;;;;;1.10;1.00;;;15.00;73.70;;;;;;5093465;28;20477;-67
2022/02/14 11:45:39;;;;;;;1.07;1.00;;;14.90;73.70;;;;;;5093075;28;20453;-66
2022/02/14 11:48:22;;;;;;;1.30;1.20;;;14.90;74.60;;;;;;5093416;28;20419;-67
2022/02/14 11:50:48;;;;;;;1.90;1.80;;;14.90;75.80;;;;;;5093612;28;20390;-66
2022/02/14 11:53:35;;;;;;;1.00;1.00;;;14.90;75.60;;;;;;5093663;28;20373;-69
2022/02/14 11:56:21;;;;;;;3.47;1.30;;;14.90;76.20;;;;;;5093325;28;20425;-69
2022/02/14 11:59:10;;;;;;;1.10;1.10;;;14.80;75.80;;;;;;5093489;28;20422;-65
2022/02/14 12:01:59;;;;;;;0.83;0.83;;;14.80;76.80;;;;;;5088858;28;20426;-64
2022/02/14 12:07:20;;;;;;;1.37;1.27;;;14.70;77.70;;;;;;5073464;28;20541;-64
2022/02/14 12:09:59;;;;;;;1.97;1.83;;;14.70;78.60;;;;;;5073580;28;20797;-64
2022/02/14 12:12:43;;;;;;;1.27;1.23;;;14.70;78.80;;;;;;5073520;28;20480;-65
2022/02/14 12:21:24;;;;;;;1.80;1.30;;;14.30;80.00;;;;;;5093832;28;20432;-67
2022/02/14 12:23:55;;;;;;;1.97;1.07;;;14.20;79.50;;;;;;5088374;28;20422;-68
2022/02/14 12:26:24;;;;;;;4.13;1.33;;;14.10;79.90;;;;;;5073832;28;20979;-65
2022/02/14 12:29:32;;;;;;;0.77;0.77;;;14.00;80.40;;;;;;5079540;28;20426;-65
2022/02/14 12:31:48;;;;;;;1.47;1.37;;;13.90;81.40;;;;;;5093123;28;20491;-64
2022/02/14 12:34:27;;;;;;;1.80;1.03;;;13.80;81.50;;;;;;5092857;28;20426;-65
2022/02/14 12:37:01;;;;;;;3.60;1.47;;;13.80;82.20;;;;;;5093343;28;20496;-66
2022/02/14 12:39:36;;;;;;;0.73;0.73;;;13.70;82.60;;;;;;5093423;28;20425;-68
2022/02/14 12:42:19;;;;;;;2.20;1.00;;;13.70;82.80;;;;;;5093312;28;20448;-66
2022/02/14 12:44:46;;;;;;;1.40;1.27;;;13.70;82.70;;;;;;5092698;28;20436;-63
2022/02/14 12:47:13;;;;;;;3.13;1.17;;;13.70;83.30;;;;;;5093049;28;20526;-63
2022/02/14 12:49:42;;;;;;;4.10;1.47;;;13.70;83.20;;;;;;5094213;28;20504;-65
2022/02/14 12:52:15;;;;;;;0.53;0.53;;;13.80;83.70;;;;;;5097321;28;20907;-64
2022/02/14 12:54:54;;;;;;;1.20;1.10;;;13.80;83.70;;;;;;5096463;28;20453;-64
2022/02/14 12:57:32;;;;;;;1.93;1.27;;;13.80;83.90;;;;;;5097359;28;20377;-63
2022/02/14 12:59:58;;;;;;;1.03;0.93;;;13.80;84.20;;;;;;5097207;28;20835;-67
2022/02/14 13:02:25;;;;;;;1.30;1.17;;;13.90;84.40;;;;;;5094369;28;20472;-69
2022/02/14 13:04:51;;;;;;;1.83;1.00;;;13.90;84.60;;;;;;5096117;28;20689;-69
2022/02/14 13:07:17;;;;;;;1.30;1.20;;;13.80;85.00;;;;;;5096216;28;20461;-68
2022/02/14 13:09:42;;;;;;;1.00;0.90;;;13.80;85.20;;;;;;5096246;28;20425;-68
2022/02/14 13:12:11;;;;;;;1.50;1.47;;;13.80;85.80;;;;;;5096848;28;20480;-69